DAL223 EIDW-EGFF
Flight info
| Callsign | DAL223 |
|---|---|
| Flight time | N/A |
| Altitude | 33000 |
| Route | PESIT2J PESIT DCT BAKUR DCT GUBJE DCT ADHAV DCT AGCAT/N0442F230 Q63 BAJJA |
| Aircraft | MD11/H-SDE1E2E3FGHIJ2J3J4J5M1RWXY/LB1D1 |
Departure
| Time | 2026-05-05 16:09 |
|---|---|
| Airport | Dublin Airport (EIDW) |
Arrival
| Time | N/A |
|---|---|
| Airport | Cardiff International Airport (EGFF) |
| Time | Latitude | Longitude | Altitude | Speed | Heading |
|---|---|---|---|---|---|
| 2026-05-05 15:38 | 53.42748 | -6.24845 | 218 ft | 0 kts | 56° |
| 2026-05-05 15:55 | 53.42747 | -6.24846 | 218 ft | 2 kts | 56° |
| 2026-05-05 15:55 | 53.42733 | -6.24881 | 224 ft | 4 kts | 56° |
| 2026-05-05 15:55 | 53.42720 | -6.24915 | 220 ft | 3 kts | 56° |
| 2026-05-05 15:55 | 53.42706 | -6.24940 | 226 ft | 4 kts | 12° |
| 2026-05-05 15:56 | 53.42683 | -6.24940 | 222 ft | 4 kts | 341° |
| 2026-05-05 15:56 | 53.42665 | -6.24927 | 219 ft | 0 kts | 329° |
| 2026-05-05 16:00 | 53.42678 | -6.24940 | 224 ft | 8 kts | 329° |
| 2026-05-05 16:01 | 53.42739 | -6.25002 | 224 ft | 10 kts | 325° |
| 2026-05-05 16:01 | 53.42781 | -6.25090 | 223 ft | 10 kts | 294° |
| 2026-05-05 16:01 | 53.42799 | -6.25200 | 227 ft | 10 kts | 292° |
| 2026-05-05 16:01 | 53.42854 | -6.25287 | 223 ft | 14 kts | 333° |
| 2026-05-05 16:02 | 53.42944 | -6.25358 | 224 ft | 14 kts | 336° |
| 2026-05-05 16:02 | 53.43032 | -6.25420 | 221 ft | 13 kts | 337° |
| 2026-05-05 16:02 | 53.43116 | -6.25479 | 223 ft | 13 kts | 337° |
| 2026-05-05 16:02 | 53.43197 | -6.25536 | 224 ft | 12 kts | 336° |
| 2026-05-05 16:03 | 53.43274 | -6.25593 | 226 ft | 12 kts | 336° |
| 2026-05-05 16:03 | 53.43330 | -6.25635 | 222 ft | 8 kts | 336° |
| 2026-05-05 16:03 | 53.43387 | -6.25627 | 221 ft | 11 kts | 33° |
| 2026-05-05 16:03 | 53.43405 | -6.25517 | 218 ft | 9 kts | 89° |
| 2026-05-05 16:04 | 53.43401 | -6.25427 | 225 ft | 8 kts | 95° |
| 2026-05-05 16:04 | 53.43393 | -6.25284 | 220 ft | 18 kts | 95° |
| 2026-05-05 16:04 | 53.43380 | -6.25064 | 218 ft | 19 kts | 95° |
| 2026-05-05 16:04 | 53.43369 | -6.24850 | 219 ft | 18 kts | 95° |
| 2026-05-05 16:05 | 53.43359 | -6.24651 | 225 ft | 17 kts | 95° |
| 2026-05-05 16:05 | 53.43348 | -6.24467 | 219 ft | 15 kts | 96° |
| 2026-05-05 16:05 | 53.43338 | -6.24295 | 218 ft | 14 kts | 96° |
| 2026-05-05 16:05 | 53.43328 | -6.24133 | 227 ft | 14 kts | 96° |
| 2026-05-05 16:06 | 53.43321 | -6.23995 | 218 ft | 10 kts | 94° |
| 2026-05-05 16:06 | 53.43330 | -6.23907 | 226 ft | 6 kts | 54° |
| 2026-05-05 16:06 | 53.43358 | -6.23867 | 223 ft | 5 kts | 35° |
| 2026-05-05 16:06 | 53.43374 | -6.23859 | 225 ft | 4 kts | 9° |
| 2026-05-05 16:07 | 53.43419 | -6.23851 | 220 ft | 8 kts | 5° |
| 2026-05-05 16:07 | 53.43473 | -6.23883 | 225 ft | 8 kts | 319° |
| 2026-05-05 16:07 | 53.43490 | -6.23959 | 223 ft | 5 kts | 276° |
| 2026-05-05 16:07 | 53.43493 | -6.24007 | 220 ft | 2 kts | 276° |
| 2026-05-05 16:08 | 53.43493 | -6.24010 | 219 ft | 4 kts | 275° |
| 2026-05-05 16:08 | 53.43530 | -6.24725 | 227 ft | 120 kts | 275° |
| 2026-05-05 16:08 | 53.43624 | -6.26653 | 454 ft | 188 kts | 275° |
| 2026-05-05 16:09 | 53.43724 | -6.28746 | 1918 ft | 170 kts | 286° |
| 2026-05-05 16:09 | 53.44243 | -6.30424 | 3295 ft | 160 kts | 309° |
| 2026-05-05 16:09 | 53.44989 | -6.32034 | 4086 ft | 198 kts | 310° |
| 2026-05-05 16:09 | 53.45855 | -6.33913 | 4977 ft | 207 kts | 309° |
| 2026-05-05 16:10 | 53.46729 | -6.35864 | 5926 ft | 213 kts | 307° |
| 2026-05-05 16:10 | 53.47674 | -6.38015 | 6153 ft | 243 kts | 307° |